createdAt,value
2022-12-31T00:01:17.557Z,100
2022-12-31T00:04:17.175Z,100
2022-12-31T00:07:17.045Z,100
2022-12-31T00:11:16.252Z,100
2022-12-31T00:14:16.156Z,100
2022-12-31T00:17:16.277Z,100
2022-12-31T00:21:17.331Z,100
2022-12-31T00:24:16.423Z,100
2022-12-31T00:27:16.970Z,100
2022-12-31T00:31:20.925Z,100
2022-12-31T00:34:16.212Z,100
2022-12-31T00:37:16.226Z,100
2022-12-31T00:41:17.803Z,100
2022-12-31T00:44:17.145Z,100
2022-12-31T00:47:16.872Z,100
2022-12-31T00:51:18.994Z,100
2022-12-31T00:54:16.567Z,100
2022-12-31T00:57:16.669Z,100
2022-12-31T01:01:18.227Z,100
2022-12-31T01:04:18.813Z,100
2022-12-31T01:07:16.239Z,100
2022-12-31T01:11:24.291Z,100
2022-12-31T01:14:18.650Z,100
2022-12-31T01:17:17.376Z,100
2022-12-31T01:21:17.158Z,100
2022-12-31T01:24:16.996Z,100
2022-12-31T01:27:16.031Z,100
2022-12-31T01:31:19.381Z,100
2022-12-31T01:34:16.697Z,100
2022-12-31T01:37:16.459Z,100
2022-12-31T01:41:20.700Z,100
2022-12-31T01:44:52.639Z,100
2022-12-31T01:47:22.790Z,100
2022-12-31T01:51:16.319Z,100
2022-12-31T01:54:19.790Z,100
2022-12-31T01:57:17.480Z,100
2022-12-31T02:01:24.869Z,100
2022-12-31T02:04:16.728Z,100
2022-12-31T02:07:16.721Z,100
2022-12-31T02:11:23.999Z,100
2022-12-31T02:14:19.804Z,100
2022-12-31T02:17:25.647Z,100
2022-12-31T02:21:32.244Z,100
2022-12-31T02:31:20.901Z,100
2022-12-31T02:34:24.858Z,100
2022-12-31T02:37:19.154Z,100
2022-12-31T02:41:51.346Z,100
2022-12-31T02:44:21.892Z,100
2022-12-31T02:47:29.829Z,100
2022-12-31T02:51:32.185Z,100
2022-12-31T02:54:27.813Z,100
2022-12-31T02:57:24.221Z,100
2022-12-31T03:02:22.926Z,100
2022-12-31T03:04:51.222Z,100
2022-12-31T03:07:20.302Z,100
2022-12-31T03:12:47.023Z,100
2022-12-31T03:14:16.506Z,100
2022-12-31T03:17:16.723Z,100
2022-12-31T03:31:16.529Z,100
2022-12-31T03:34:16.651Z,100
2022-12-31T03:37:16.720Z,100
2022-12-31T03:41:16.183Z,100
2022-12-31T03:44:16.753Z,100
2022-12-31T03:47:16.637Z,100
2022-12-31T03:51:17.187Z,100
2022-12-31T03:54:16.985Z,100
2022-12-31T03:57:16.801Z,100
2022-12-31T04:01:15.897Z,100
2022-12-31T04:04:16.326Z,100
2022-12-31T04:07:16.336Z,100
2022-12-31T04:11:20.646Z,100
2022-12-31T04:14:17.360Z,100
2022-12-31T04:17:16.292Z,100
2022-12-31T04:21:15.688Z,100
2022-12-31T04:24:16.245Z,100
2022-12-31T04:27:16.160Z,100
2022-12-31T04:31:16.654Z,100
2022-12-31T04:34:16.573Z,100
2022-12-31T04:37:16.485Z,100
2022-12-31T04:41:19.312Z,100
2022-12-31T04:44:17.147Z,100
2022-12-31T04:47:21.741Z,100
2022-12-31T04:51:16.004Z,100
2022-12-31T04:54:16.251Z,100
2022-12-31T04:57:16.135Z,100
2022-12-31T05:01:16.160Z,100
2022-12-31T05:04:16.153Z,100
2022-12-31T05:07:16.142Z,100
2022-12-31T05:11:16.423Z,100
2022-12-31T05:14:17.401Z,100
2022-12-31T05:17:16.408Z,100
2022-12-31T05:21:19.505Z,100
2022-12-31T05:24:16.345Z,100
2022-12-31T05:27:16.373Z,100
2022-12-31T05:31:16.069Z,100
2022-12-31T05:34:16.453Z,100
2022-12-31T05:37:16.352Z,100
2022-12-31T05:41:15.617Z,100
2022-12-31T05:44:16.101Z,100
2022-12-31T05:47:16.533Z,100
2022-12-31T05:51:16.423Z,100
2022-12-31T05:54:16.835Z,100
2022-12-31T05:57:16.914Z,100
2022-12-31T06:01:16.168Z,100
2022-12-31T06:04:16.833Z,100
2022-12-31T06:07:16.693Z,100
2022-12-31T06:11:16.112Z,100
2022-12-31T06:14:16.588Z,100
2022-12-31T06:17:16.310Z,100
2022-12-31T06:21:17.031Z,100
2022-12-31T06:24:17.026Z,100
2022-12-31T06:27:16.853Z,100
2022-12-31T06:31:16.271Z,100
2022-12-31T06:34:16.758Z,100
2022-12-31T06:37:16.678Z,100
2022-12-31T06:41:16.410Z,100
2022-12-31T06:44:16.312Z,100
2022-12-31T06:47:16.301Z,100
2022-12-31T06:51:17.893Z,100
2022-12-31T06:54:16.191Z,100
2022-12-31T06:57:16.546Z,100
2022-12-31T07:02:14.612Z,100
2022-12-31T07:11:20.656Z,100
2022-12-31T07:14:28.015Z,100
2022-12-31T07:17:31.139Z,100
2022-12-31T07:21:20.817Z,100
2022-12-31T07:24:16.948Z,100
2022-12-31T07:27:35.264Z,100
2022-12-31T07:31:28.357Z,100
2022-12-31T07:34:24.721Z,100
2022-12-31T07:37:28.487Z,100
2022-12-31T07:41:25.384Z,100
2022-12-31T07:44:31.113Z,100
2022-12-31T07:47:22.250Z,100
2022-12-31T07:51:16.990Z,100
2022-12-31T07:54:17.045Z,100
2022-12-31T07:57:19.571Z,100
2022-12-31T08:01:28.743Z,100
2022-12-31T08:04:26.612Z,100
2022-12-31T08:07:27.852Z,100
2022-12-31T08:11:24.305Z,100
2022-12-31T08:14:17.938Z,100
2022-12-31T08:17:18.647Z,100
2022-12-31T08:21:34.521Z,100
2022-12-31T08:24:22.120Z,100
2022-12-31T08:27:23.260Z,100
2022-12-31T08:31:20.260Z,100
2022-12-31T08:34:25.425Z,100
2022-12-31T08:37:24.170Z,100
2022-12-31T08:41:22.979Z,100
2022-12-31T08:44:26.341Z,100
2022-12-31T08:47:27.972Z,100
2022-12-31T08:51:19.333Z,100
2022-12-31T08:54:16.446Z,100
2022-12-31T08:57:25.955Z,100
2022-12-31T09:01:24.154Z,100
2022-12-31T09:04:24.877Z,100
2022-12-31T09:07:23.948Z,100
2022-12-31T09:11:23.536Z,100
2022-12-31T09:14:38.286Z,100
2022-12-31T09:17:41.958Z,100
2022-12-31T09:21:16.513Z,100
2022-12-31T09:24:17.145Z,100
2022-12-31T09:27:27.783Z,100
2022-12-31T09:31:26.327Z,100
2022-12-31T09:34:22.940Z,100
2022-12-31T09:37:24.771Z,100
2022-12-31T09:41:31.438Z,100
2022-12-31T09:45:30.034Z,99.88377262582173
2022-12-31T09:51:26.866Z,99.29509620654743
2022-12-31T09:54:28.321Z,98.7687553378198
2022-12-31T09:57:31.165Z,97.59085819222744
2022-12-31T10:01:27.204Z,97.77253467280651
2022-12-31T10:05:13.203Z,93.23397730549533
2022-12-31T10:07:32.147Z,90.55650301563627
2022-12-31T10:11:26.326Z,90.71023408541626
2022-12-31T10:14:32.955Z,90.55865431739649
2022-12-31T10:17:29.931Z,85.00479673286816
2022-12-31T10:21:30.980Z,84.25262860677222
2022-12-31T10:24:33.401Z,80.60957588484554
2022-12-31T10:27:27.030Z,80.63876617996735
2022-12-31T10:31:25.857Z,76.68719822279783
2022-12-31T10:34:24.712Z,75.74834266850311
2022-12-31T10:37:18.923Z,76.339251485956
2022-12-31T10:41:48.960Z,74.32707246876853
2022-12-31T10:45:43.221Z,73.17704179036338
2022-12-31T10:51:47.657Z,70.18495719006984
2022-12-31T11:01:25.349Z,71.41062134359198
2022-12-31T11:04:40.125Z,73.11645843371865
2022-12-31T11:11:27.701Z,70.27483753803368
2022-12-31T11:14:47.584Z,68.88015307879921
2022-12-31T11:17:35.473Z,69.89666226285208
2022-12-31T11:21:28.653Z,69.49738601610537
2022-12-31T11:24:32.210Z,68.21207485644315
2022-12-31T11:27:36.556Z,68.70377949070138
2022-12-31T11:31:31.914Z,69.61058019464724
2022-12-31T11:34:30.503Z,70.11147273794403
2022-12-31T11:37:28.720Z,71.85549047144974
2022-12-31T11:41:24.443Z,71.75831714526171
2022-12-31T11:44:30.969Z,69.5590537489457
2022-12-31T11:47:44.667Z,69.87295094607022
2022-12-31T11:51:35.902Z,69.68137519763462
2022-12-31T12:11:23.027Z,67.48438290950551
2022-12-31T12:14:20.861Z,67.59252326453732
2022-12-31T12:17:25.785Z,68.4279440796017
2022-12-31T12:21:19.300Z,66.4750925554641
2022-12-31T12:24:20.325Z,66.21480328775982
2022-12-31T12:27:21.990Z,66.16615481103952
2022-12-31T12:31:20.047Z,63.852449864781285
2022-12-31T12:34:23.211Z,65.10195182011712
2022-12-31T12:37:30.339Z,65.61968699170023
2022-12-31T12:41:22.532Z,64.82355470288047
2022-12-31T12:44:17.010Z,63.21008166530887
2022-12-31T12:47:18.443Z,62.53231873521218
2022-12-31T12:51:30.944Z,62.0660586911222
2022-12-31T12:54:34.604Z,60.75691213810305
2022-12-31T12:57:22.272Z,62.2950623066853
2022-12-31T13:01:26.317Z,60.33324404045775
2022-12-31T13:05:02.429Z,62.122547095655094
2022-12-31T13:07:32.077Z,62.58478611722823
2022-12-31T13:11:28.973Z,62.181195179216886
2022-12-31T13:14:24.653Z,61.1035191655158
2022-12-31T13:17:34.195Z,59.235054279475506
2022-12-31T13:21:28.307Z,59.53177227556254
2022-12-31T13:24:27.330Z,58.96505528037267
2022-12-31T13:27:26.419Z,59.20638614736434
2022-12-31T13:31:20.803Z,58.80854830168063
2022-12-31T13:34:20.285Z,60.773310060359506
2022-12-31T13:37:28.138Z,60.3486716393855
2022-12-31T13:41:21.884Z,58.89373606449154
2022-12-31T13:44:24.179Z,60.06108145727352
2022-12-31T13:47:25.220Z,58.74309461075793
2022-12-31T14:01:21.988Z,58.82542112569437
2022-12-31T14:04:23.919Z,60.36981850638423
2022-12-31T14:07:21.437Z,59.97484398648626
2022-12-31T14:11:24.738Z,59.843668323185625
2022-12-31T14:14:28.041Z,59.43339188950697
2022-12-31T14:17:25.849Z,60.42912767603508
2022-12-31T14:21:22.965Z,60.93316298567446
2022-12-31T14:24:29.755Z,59.861060306184115
2022-12-31T14:27:20.943Z,59.65452094436375
2022-12-31T14:31:27.457Z,59.4485011329094
2022-12-31T14:34:24.733Z,59.25808047001098
2022-12-31T14:37:26.350Z,59.425687081151466
2022-12-31T14:41:32.610Z,60.20201895940419
2022-12-31T14:44:28.890Z,60.09234719963128
2022-12-31T14:47:29.910Z,61.119490747272074
2022-12-31T14:51:16.119Z,60.42046286904646
2022-12-31T14:54:28.889Z,59.79650740820643
2022-12-31T14:57:23.294Z,59.27901178459976
2022-12-31T15:01:19.754Z,58.988374101347
2022-12-31T15:04:31.344Z,59.33629985715895
2022-12-31T15:07:24.057Z,59.85288886178138
2022-12-31T15:11:31.241Z,59.83375610433
2022-12-31T15:14:59.396Z,60.685972091488985
2022-12-31T15:17:30.132Z,60.58221043320368
2022-12-31T15:21:32.452Z,61.57777494384907
2022-12-31T15:24:19.941Z,62.122872139447665
2022-12-31T15:27:32.185Z,62.781075470785915
2022-12-31T15:31:19.910Z,62.73480482552197
2022-12-31T15:34:25.443Z,62.22700957166224
2022-12-31T15:37:29.777Z,62.40085048140225
2022-12-31T15:41:26.485Z,63.30727708751725
2022-12-31T15:44:23.468Z,63.932781875358636
2022-12-31T15:47:25.670Z,64.30152594254108
2022-12-31T15:51:21.741Z,64.33948580039667
2022-12-31T15:54:24.482Z,64.84593572593057
2022-12-31T15:57:20.003Z,65.23012631186701
2022-12-31T16:01:20.053Z,66.26115516235534
2022-12-31T16:04:19.691Z,66.5822278421592
2022-12-31T16:07:17.652Z,66.93895846426351
2022-12-31T16:11:16.762Z,67.67839969719881
2022-12-31T16:14:21.399Z,68.43037012030781
2022-12-31T16:17:26.463Z,68.83256144918901
2022-12-31T16:21:23.789Z,69.35675440160202
2022-12-31T16:24:27.440Z,69.05361102841437
2022-12-31T16:27:17.093Z,69.79210431251673
2022-12-31T16:31:18.746Z,70.43968655502935
2022-12-31T16:34:19.670Z,70.72782233793411
2022-12-31T16:37:19.084Z,71.06534681026449
2022-12-31T16:41:18.662Z,71.47208360782048
2022-12-31T16:44:26.074Z,71.78213552674067
2022-12-31T16:47:20.393Z,71.62779524123086
2022-12-31T16:51:20.245Z,71.97520713195583
2022-12-31T16:54:19.589Z,72.27354989565599
2022-12-31T16:57:20.598Z,72.78114901420614
2022-12-31T17:01:18.903Z,72.78730218273925
2022-12-31T17:04:19.693Z,73.12248698471595
2022-12-31T17:07:49.095Z,73.74019748057064
2022-12-31T17:11:23.508Z,74.50544484206146
2022-12-31T17:14:19.270Z,74.71949867078986
2022-12-31T17:17:22.018Z,74.35543113526067
2022-12-31T17:21:16.409Z,74.52499733813511
2022-12-31T17:24:16.238Z,75.18043992629812
2022-12-31T17:27:16.713Z,75.3723655338387
2022-12-31T17:31:34.168Z,75.92826766691958
2022-12-31T17:34:29.024Z,75.54398059426146
2022-12-31T17:37:19.028Z,75.80636859847374
2022-12-31T17:41:24.493Z,76.49006263071696
2022-12-31T17:44:19.715Z,76.64384965647383
2022-12-31T17:47:16.843Z,77.00333684985218
2022-12-31T17:51:15.925Z,77.80089868675866
2022-12-31T17:54:17.319Z,77.6903385768371
2022-12-31T17:57:25.542Z,78.17811104683244
2022-12-31T18:01:18.683Z,78.00000183326091
2022-12-31T18:04:17.536Z,78.17351787182635
2022-12-31T18:07:16.018Z,78.13661827793473
2022-12-31T18:11:19.054Z,78.74214798800288
2022-12-31T18:14:16.394Z,78.83410031375186
2022-12-31T18:17:16.895Z,79.30946937540699
2022-12-31T18:21:28.358Z,79.69936162152149
2022-12-31T18:24:24.260Z,80.16052408996109
2022-12-31T18:27:18.111Z,80.77456040174633
2022-12-31T18:31:20.423Z,81.28756124696794
2022-12-31T18:34:17.662Z,81.47570802483635
2022-12-31T18:37:21.780Z,82.24752477202902
2022-12-31T18:41:18.524Z,81.59602910285832
2022-12-31T18:44:16.964Z,81.34919277493668
2022-12-31T18:47:18.843Z,82.00693469243413
2022-12-31T18:51:18.850Z,82.02170769696443
2022-12-31T18:54:16.460Z,82.8997088626279
2022-12-31T18:57:16.631Z,82.24326205017755
2022-12-31T19:01:24.882Z,82.02061702495898
2022-12-31T19:04:26.607Z,82.10609008865283
2022-12-31T19:07:17.185Z,82.31502549686967
2022-12-31T19:11:17.615Z,82.13697640548745
2022-12-31T19:14:21.555Z,82.79448502590738
2022-12-31T19:17:18.204Z,82.68915479501449
2022-12-31T19:21:20.107Z,82.80326859680923
2022-12-31T19:24:20.105Z,83.10014708875522
2022-12-31T19:27:17.423Z,83.83182702461828
2022-12-31T19:31:17.608Z,84.48147183748712
2022-12-31T19:34:17.355Z,84.38991962205158
2022-12-31T19:37:17.268Z,84.51930205643353
2022-12-31T19:41:19.105Z,84.61771679729152
2022-12-31T19:44:19.212Z,84.91929533376208
2022-12-31T19:47:17.360Z,85.32039535204245
2022-12-31T19:51:20.277Z,85.44764269515026
2022-12-31T19:54:16.979Z,85.59327966133553
2022-12-31T19:57:17.050Z,85.6468710582619
2022-12-31T20:01:24.057Z,85.8527804616584
2022-12-31T20:04:22.191Z,86.28437706081812
2022-12-31T20:07:26.975Z,86.61394517410915
2022-12-31T20:11:19.354Z,86.27450131554922
2022-12-31T20:14:16.720Z,86.9972907446765
2022-12-31T20:17:16.661Z,87.05196731587648
2022-12-31T20:21:19.816Z,87.25709507797743
2022-12-31T20:24:16.888Z,87.45208127424694
2022-12-31T20:27:18.763Z,87.79012245814175
2022-12-31T20:31:18.537Z,88.1262952944591
2022-12-31T20:34:16.535Z,88.79857069578664
2022-12-31T20:37:16.719Z,88.70752386352407
2022-12-31T20:41:18.099Z,89.47621574180074
2022-12-31T20:44:16.643Z,89.44297959576578
2022-12-31T20:47:16.514Z,89.00330946809336
2022-12-31T20:51:18.665Z,89.08747413382855
2022-12-31T20:54:17.238Z,89.22899283866558
2022-12-31T20:57:17.266Z,89.44505816298107
2022-12-31T21:01:17.188Z,89.67366951803001
2022-12-31T21:04:16.821Z,90.80678868528969
2022-12-31T21:07:16.583Z,91.60748612826423
2022-12-31T21:21:16.657Z,91.31435432606084
2022-12-31T21:41:51.480Z,91.39375336687174
2022-12-31T21:44:17.346Z,92.06042645722395
2022-12-31T21:48:22.214Z,92.45231010323053
2022-12-31T21:51:17.684Z,92.18197665456991
2022-12-31T21:56:09.311Z,91.90157866791297
2022-12-31T21:57:16.697Z,92.1022220965862
2022-12-31T22:11:17.948Z,94.79722155855379
2022-12-31T22:14:16.933Z,94.88808282494831
2022-12-31T22:17:16.660Z,95.55726174998411
2022-12-31T22:21:20.234Z,95.19965523116251
2022-12-31T22:24:17.033Z,96.1623009867284
2022-12-31T22:27:28.842Z,96.26325771570721
2022-12-31T22:31:19.537Z,96.08643039620982
2022-12-31T22:34:17.464Z,96.28202628253516
2022-12-31T22:37:46.385Z,96.60382051894109
2022-12-31T22:41:18.082Z,96.26436938292834
2022-12-31T22:44:17.265Z,96.01517136013578
2022-12-31T22:47:16.576Z,95.64653110308862
2022-12-31T22:51:17.105Z,96.3808293201077
2022-12-31T22:54:16.576Z,96.73805747720844
2022-12-31T22:57:20.052Z,97.69724618436241
2022-12-31T23:01:18.813Z,97.68496740635413
2022-12-31T23:04:17.501Z,98.59844998859072
2022-12-31T23:07:16.141Z,98.92555300930205
2022-12-31T23:11:16.693Z,99.39393220515278
2022-12-31T23:31:16.269Z,98.3296082145115
2022-12-31T23:34:16.759Z,98.73325652161303
2022-12-31T23:37:16.529Z,99.15246160667607
2022-12-31T23:41:18.840Z,99.70247361741026
2022-12-31T23:44:16.191Z,99.8530435313268
2022-12-31T23:47:16.117Z,99.97033976586386
2022-12-31T23:51:15.909Z,99.40326535985665
2022-12-31T23:54:17.900Z,99.02714840969236
2022-12-31T23:57:16.429Z,99.95001521113124
